Time;durP1;ratioP1;P1;durP2;ratioP2;P2;SDS_P1;SDS_P2;PMS_P1;PMS_P2;Temp;Humidity;BMP_temperature;BMP_pressure;BME280_temperature;BME280_humidity;BME280_pressure;Samples;Min_cycle;Max_cycle;Signal;HPM_P1;HPM_P2
2022/10/31 00:00:18;;;;;;;18.07;8.10;;;14.90;1.00;;;;;;4983859;28;20209;-69
2022/10/31 00:02:45;;;;;;;9.73;7.20;;;14.90;1.00;;;;;;4977278;28;20177;-69
2022/10/31 00:05:10;;;;;;;13.00;7.10;;;14.80;99.90;;;;;;4976894;28;20177;-68
2022/10/31 00:07:36;;;;;;;26.70;8.90;;;14.70;99.90;;;;;;4985388;28;20443;-69
2022/10/31 00:10:02;;;;;;;28.50;9.67;;;14.70;1.00;;;;;;4985845;28;20201;-67
2022/10/31 00:12:28;;;;;;;25.93;8.30;;;14.70;1.00;;;;;;4982413;28;20178;-64
2022/10/31 00:14:54;;;;;;;12.13;7.60;;;14.60;1.00;;;;;;4980982;28;20833;-69
2022/10/31 00:17:19;;;;;;;10.07;6.63;;;14.60;99.90;;;;;;4984026;28;20189;-69
2022/10/31 00:19:45;;;;;;;16.33;7.97;;;14.60;99.90;;;;;;4983953;28;20220;-67
2022/10/31 00:22:11;;;;;;;25.80;8.00;;;14.60;99.90;;;;;;4984804;28;20187;-68
2022/10/31 00:24:36;;;;;;;18.60;6.80;;;14.60;1.00;;;;;;4984642;28;20294;-67
2022/10/31 00:27:02;;;;;;;12.27;7.33;;;14.60;1.00;;;;;;4991365;28;20184;-68
2022/10/31 00:29:28;;;;;;;14.27;7.20;;;14.70;1.00;;;;;;4982481;28;20268;-69
2022/10/31 00:31:53;;;;;;;18.83;8.93;;;14.70;99.90;;;;;;4988893;28;20207;-69
2022/10/31 00:34:19;;;;;;;13.93;7.60;;;14.60;99.90;;;;;;4976971;28;20181;-67
2022/10/31 00:36:45;;;;;;;12.90;6.93;;;14.60;1.00;;;;;;4987628;28;20181;-66
2022/10/31 00:39:10;;;;;;;21.00;8.70;;;14.60;1.00;;;;;;4981495;28;20212;-67
2022/10/31 00:41:36;;;;;;;9.80;6.80;;;14.60;1.00;;;;;;4977061;28;20801;-66
2022/10/31 00:44:02;;;;;;;12.03;7.33;;;14.60;1.00;;;;;;4975615;28;20564;-66
2022/10/31 00:46:27;;;;;;;18.73;7.20;;;14.50;1.00;;;;;;4983467;28;20193;-69
2022/10/31 00:48:53;;;;;;;19.60;8.13;;;14.50;1.00;;;;;;4983122;28;20208;-67
2022/10/31 00:51:19;;;;;;;8.90;5.93;;;14.50;1.00;;;;;;4978664;28;20191;-67
2022/10/31 00:53:45;;;;;;;11.03;6.07;;;14.40;1.00;;;;;;4983192;28;20240;-67
2022/10/31 00:56:10;;;;;;;10.10;6.60;;;14.40;99.90;;;;;;4979876;28;20189;-66
2022/10/31 00:58:36;;;;;;;20.47;7.30;;;14.40;99.90;;;;;;4984550;28;20181;-66
2022/10/31 01:01:02;;;;;;;8.10;6.80;;;14.50;99.90;;;;;;4988240;28;20209;-67
2022/10/31 01:03:30;;;;;;;21.10;7.10;;;14.40;99.90;;;;;;4982813;28;20309;-67
2022/10/31 01:06:16;;;;;;;15.10;7.37;;;14.40;99.90;;;;;;4981329;28;20434;-66
2022/10/31 01:08:43;;;;;;;40.23;8.37;;;14.40;99.90;;;;;;4980090;28;20460;-66
2022/10/31 01:11:20;;;;;;;17.43;6.87;;;14.40;99.90;;;;;;4971710;28;20436;-67
2022/10/31 01:13:46;;;;;;;37.03;8.20;;;14.40;99.90;;;;;;4983307;28;20576;-65
2022/10/31 01:16:15;;;;;;;32.77;8.33;;;14.30;99.90;;;;;;4986127;28;20431;-66
2022/10/31 01:18:41;;;;;;;19.13;6.53;;;14.30;99.90;;;;;;4982226;28;20740;-67
2022/10/31 01:21:16;;;;;;;11.33;6.20;;;14.20;99.90;;;;;;4985707;28;20440;-67
2022/10/31 01:23:42;;;;;;;20.57;7.23;;;14.10;99.90;;;;;;4984778;28;20212;-66
2022/10/31 01:26:18;;;;;;;11.10;5.97;;;14.10;99.90;;;;;;4987523;28;20939;-72
2022/10/31 01:28:48;;;;;;;22.47;6.37;;;14.00;99.90;;;;;;4976509;28;20474;-67
2022/10/31 01:31:15;;;;;;;10.73;6.03;;;14.10;99.90;;;;;;4977636;28;20448;-67
2022/10/31 01:33:41;;;;;;;7.53;5.33;;;14.10;99.90;;;;;;4976762;28;20432;-66
2022/10/31 01:36:24;;;;;;;14.10;7.00;;;14.00;99.90;;;;;;4980659;28;20454;-66
2022/10/31 01:38:52;;;;;;;38.80;6.90;;;14.00;99.90;;;;;;4982987;28;20685;-67
2022/10/31 01:41:21;;;;;;;8.40;5.93;;;14.00;99.90;;;;;;4982530;28;20479;-67
2022/10/31 01:43:48;;;;;;;10.27;5.40;;;14.00;99.90;;;;;;4989002;28;20514;-67
2022/10/31 01:46:17;;;;;;;13.90;6.83;;;14.00;99.90;;;;;;4986206;28;20525;-67
2022/10/31 01:48:43;;;;;;;9.77;5.70;;;14.00;99.90;;;;;;4977970;28;20461;-66
2022/10/31 01:51:12;;;;;;;13.93;5.70;;;14.00;99.90;;;;;;4983423;28;20448;-68
2022/10/31 01:53:39;;;;;;;10.20;5.03;;;14.00;99.90;;;;;;4984932;28;20180;-67
2022/10/31 01:56:05;;;;;;;7.40;5.00;;;14.10;99.90;;;;;;4981932;28;20519;-68
2022/10/31 01:58:32;;;;;;;16.83;6.33;;;14.10;99.90;;;;;;4987763;28;20443;-65
2022/10/31 02:01:00;;;;;;;30.87;7.90;;;14.00;99.90;;;;;;4977361;28;20506;-66
2022/10/31 02:03:26;;;;;;;18.00;5.03;;;14.00;99.90;;;;;;4977783;28;20437;-64
2022/10/31 02:05:55;;;;;;;52.13;7.90;;;13.90;99.90;;;;;;4989202;28;21025;-64
2022/10/31 02:08:33;;;;;;;27.13;6.37;;;13.90;99.90;;;;;;4985488;28;20477;-64
2022/10/31 02:11:00;;;;;;;15.23;7.33;;;13.80;99.90;;;;;;4973868;28;20899;-64
2022/10/31 02:13:29;;;;;;;24.80;7.20;;;13.80;99.90;;;;;;4985265;28;20436;-64
2022/10/31 02:15:57;;;;;;;10.07;5.77;;;13.80;99.90;;;;;;4987389;28;20435;-68
2022/10/31 02:18:26;;;;;;;13.13;6.10;;;13.80;99.90;;;;;;4979981;28;20551;-66
2022/10/31 02:21:12;;;;;;;8.77;5.40;;;13.80;99.90;;;;;;4978765;28;20458;-66
2022/10/31 02:24:03;;;;;;;10.90;5.30;;;13.80;99.90;;;;;;4987483;28;20439;-67
2022/10/31 02:26:41;;;;;;;9.03;5.60;;;13.80;99.90;;;;;;4977832;28;20439;-66
2022/10/31 02:29:17;;;;;;;10.90;5.50;;;13.70;99.90;;;;;;4985197;28;20473;-68
2022/10/31 02:31:45;;;;;;;10.93;5.90;;;13.80;99.90;;;;;;4978186;28;20520;-67
2022/10/31 02:34:33;;;;;;;11.57;5.73;;;13.80;99.90;;;;;;4991992;28;20920;-67
2022/10/31 02:37:07;;;;;;;18.50;5.60;;;13.70;99.90;;;;;;4979822;28;20447;-66
2022/10/31 02:39:44;;;;;;;37.37;8.00;;;13.60;99.90;;;;;;4976583;28;20975;-68
2022/10/31 02:42:24;;;;;;;19.13;7.10;;;13.60;99.90;;;;;;4989242;28;20442;-67
2022/10/31 02:44:59;;;;;;;12.33;6.13;;;13.60;99.90;;;;;;4983603;28;20428;-67
2022/10/31 02:47:31;;;;;;;15.60;6.40;;;13.60;99.90;;;;;;4983685;28;20452;-69
2022/10/31 02:50:22;;;;;;;7.80;5.00;;;13.60;99.90;;;;;;4974692;28;20452;-65
2022/10/31 02:52:52;;;;;;;11.33;6.50;;;13.70;99.90;;;;;;4994589;28;20424;-67
2022/10/31 02:55:27;;;;;;;11.77;5.33;;;13.60;99.90;;;;;;4976744;28;20590;-68
2022/10/31 02:58:06;;;;;;;21.37;6.80;;;13.50;99.90;;;;;;4980703;28;20440;-67
2022/10/31 03:00:42;;;;;;;9.77;6.13;;;13.60;99.90;;;;;;4984108;28;20511;-66
2022/10/31 03:03:16;;;;;;;9.30;6.37;;;13.50;1.00;;;;;;4986237;28;20439;-68
2022/10/31 03:06:20;;;;;;;14.33;6.90;;;13.50;1.00;;;;;;4984610;28;20427;-68
2022/10/31 03:08:54;;;;;;;22.83;7.30;;;13.40;1.00;;;;;;4979650;28;20491;-67
2022/10/31 03:11:26;;;;;;;9.87;6.60;;;13.40;1.00;;;;;;4981117;28;20772;-66
2022/10/31 03:14:10;;;;;;;21.00;7.17;;;13.50;1.00;;;;;;4987986;28;20444;-65
2022/10/31 03:16:48;;;;;;;14.13;6.43;;;13.40;1.00;;;;;;4980675;28;20464;-66
2022/10/31 03:19:42;;;;;;;11.90;6.50;;;13.30;1.00;;;;;;4985634;28;20457;-66
2022/10/31 03:22:17;;;;;;;11.57;6.57;;;13.30;1.00;;;;;;4990096;28;20432;-66
2022/10/31 03:24:44;;;;;;;23.57;7.50;;;13.20;1.00;;;;;;4985192;28;20428;-65
2022/10/31 03:27:14;;;;;;;28.40;6.67;;;13.20;1.00;;;;;;4984276;28;20808;-66
2022/10/31 03:29:41;;;;;;;12.47;6.20;;;13.20;1.00;;;;;;4988713;28;20887;-67
2022/10/31 03:32:37;;;;;;;12.87;6.37;;;13.10;1.00;;;;;;4977753;28;20500;-67
2022/10/31 03:35:06;;;;;;;16.10;7.53;;;13.00;1.00;;;;;;4986563;28;20554;-67
2022/10/31 03:37:35;;;;;;;57.83;9.93;;;13.00;99.90;;;;;;4979555;28;20423;-67
2022/10/31 03:40:04;;;;;;;14.60;6.30;;;13.00;66.90;;;;;;4979952;28;20499;-67
2022/10/31 03:42:33;;;;;;;20.23;8.27;;;13.10;1.00;;;;;;4986374;28;20555;-68
2022/10/31 03:45:06;;;;;;;26.27;8.20;;;13.00;1.00;;;;;;4984172;28;20428;-66
2022/10/31 03:47:33;;;;;;;12.37;5.63;;;13.10;1.00;;;;;;4988135;28;20432;-68
2022/10/31 03:50:00;;;;;;;23.93;7.77;;;13.20;1.00;;;;;;4989261;28;20487;-68
2022/10/31 03:52:35;;;;;;;24.17;6.07;;;13.10;1.00;;;;;;4991089;28;20512;-69
2022/10/31 03:55:13;;;;;;;15.63;6.13;;;13.20;1.00;;;;;;4984919;28;20436;-68
2022/10/31 03:57:57;;;;;;;13.63;6.17;;;13.10;1.00;;;;;;4989686;28;20423;-67
2022/10/31 04:00:23;;;;;;;13.07;6.40;;;13.10;1.00;;;;;;4993324;28;20527;-64
2022/10/31 04:03:01;;;;;;;6.43;5.37;;;13.10;1.00;;;;;;4984489;28;20462;-67
2022/10/31 04:05:27;;;;;;;11.33;6.60;;;13.00;1.00;;;;;;4986342;28;20232;-68
2022/10/31 04:07:56;;;;;;;11.17;6.50;;;13.00;1.00;;;;;;4986328;28;20976;-68
2022/10/31 04:10:24;;;;;;;9.63;5.23;;;13.00;1.00;;;;;;4991217;28;20456;-67
2022/10/31 04:13:01;;;;;;;19.93;7.07;;;12.90;1.00;;;;;;4991045;28;20441;-68
2022/10/31 04:15:28;;;;;;;15.37;6.87;;;12.90;1.00;;;;;;4985322;28;20861;-68
2022/10/31 04:17:57;;;;;;;18.10;5.80;;;12.90;1.00;;;;;;4983243;28;20956;-69
2022/10/31 04:20:34;;;;;;;21.93;7.00;;;12.90;1.00;;;;;;4993119;28;20941;-65
2022/10/31 04:23:01;;;;;;;19.03;7.87;;;12.90;1.00;;;;;;4987843;28;20420;-68
2022/10/31 04:25:27;;;;;;;11.83;6.13;;;12.80;1.00;;;;;;4990950;28;20550;-70
2022/10/31 04:27:53;;;;;;;33.00;6.80;;;12.90;1.00;;;;;;4990422;28;20439;-68
2022/10/31 04:30:18;;;;;;;19.87;6.60;;;12.90;99.90;;;;;;4981951;28;20837;-69
2022/10/31 04:32:44;;;;;;;22.30;6.03;;;12.90;99.90;;;;;;4984822;28;20181;-68
2022/10/31 04:35:10;;;;;;;16.23;5.20;;;12.80;99.90;;;;;;4987478;28;20227;-68
2022/10/31 04:37:35;;;;;;;8.97;5.53;;;12.70;1.00;;;;;;4990548;28;20192;-68
2022/10/31 04:40:01;;;;;;;17.43;7.40;;;12.60;1.00;;;;;;4990031;28;20231;-68
2022/10/31 04:42:30;;;;;;;7.17;5.47;;;12.60;1.00;;;;;;4983913;28;20295;-69
2022/10/31 04:44:55;;;;;;;11.87;5.80;;;12.60;1.00;;;;;;4986092;28;20240;-68
2022/10/31 04:47:21;;;;;;;12.87;5.70;;;12.70;1.00;;;;;;4981932;28;20548;-68
2022/10/31 04:49:47;;;;;;;8.87;5.70;;;12.70;1.00;;;;;;4985926;28;20212;-68
2022/10/31 04:52:12;;;;;;;6.60;4.90;;;12.70;1.00;;;;;;4988194;28;20196;-69
2022/10/31 04:54:38;;;;;;;11.43;6.30;;;12.50;1.00;;;;;;4986219;28;20186;-68
2022/10/31 04:57:04;;;;;;;14.93;6.30;;;12.50;1.00;;;;;;4982530;28;20181;-68
2022/10/31 04:59:29;;;;;;;13.00;6.03;;;12.70;1.00;;;;;;4984654;28;20212;-67
2022/10/31 05:01:55;;;;;;;8.93;5.43;;;12.60;1.00;;;;;;4980547;28;20180;-69
2022/10/31 05:04:21;;;;;;;26.20;7.10;;;12.50;1.00;;;;;;4981097;28;20181;-70
2022/10/31 05:06:47;;;;;;;19.27;7.80;;;12.60;1.00;;;;;;4989735;28;20211;-69
2022/10/31 05:09:12;;;;;;;24.90;6.67;;;12.60;1.00;;;;;;4989396;28;20216;-68
2022/10/31 05:11:38;;;;;;;26.60;7.80;;;12.60;1.00;;;;;;4982415;28;20172;-68
2022/10/31 05:14:03;;;;;;;17.20;5.93;;;12.50;1.00;;;;;;4984690;28;20177;-69
2022/10/31 05:16:29;;;;;;;172.33;23.57;;;12.50;1.00;;;;;;4987375;28;20513;-68
2022/10/31 05:18:55;;;;;;;27.03;7.83;;;12.60;1.00;;;;;;4988258;28;20173;-70
2022/10/31 05:21:20;;;;;;;11.70;6.20;;;12.70;1.00;;;;;;4989123;28;20371;-67
2022/10/31 05:23:46;;;;;;;29.20;7.23;;;12.50;1.00;;;;;;4989815;28;20582;-67
2022/10/31 05:26:12;;;;;;;55.20;9.93;;;12.50;1.00;;;;;;4986765;28;20185;-68
2022/10/31 05:28:37;;;;;;;26.33;6.67;;;12.40;1.00;;;;;;4986642;28;20208;-68
2022/10/31 05:31:03;;;;;;;23.33;8.00;;;12.40;1.00;;;;;;4985642;28;20247;-69
2022/10/31 05:33:29;;;;;;;48.37;11.40;;;12.50;1.00;;;;;;4986064;28;20184;-69
2022/10/31 05:35:54;;;;;;;62.43;12.00;;;12.50;43.20;;;;;;4974617;28;20205;-69
2022/10/31 05:38:20;;;;;;;42.53;9.70;;;12.40;99.90;;;;;;4985163;28;20177;-69
2022/10/31 05:40:46;;;;;;;34.17;9.37;;;12.50;99.90;;;;;;4983402;28;20507;-70
2022/10/31 05:43:12;;;;;;;14.33;6.60;;;12.50;99.90;;;;;;4986745;28;20177;-70
2022/10/31 05:45:37;;;;;;;61.40;9.23;;;12.50;99.90;;;;;;4988877;28;20267;-69
2022/10/31 05:48:03;;;;;;;89.40;16.03;;;12.50;99.90;;;;;;4988561;28;20233;-67
2022/10/31 05:50:31;;;;;;;50.77;9.60;;;12.50;99.90;;;;;;4981047;28;20282;-69
2022/10/31 05:52:58;;;;;;;305.87;26.13;;;12.50;99.90;;;;;;4988940;28;20424;-68
2022/10/31 05:55:25;;;;;;;62.63;9.70;;;12.50;99.90;;;;;;4986662;28;20515;-70
2022/10/31 05:57:51;;;;;;;56.20;9.47;;;12.50;99.90;;;;;;4987370;28;20431;-69
2022/10/31 06:00:17;;;;;;;138.27;17.27;;;12.40;99.90;;;;;;4986512;28;20451;-69
2022/10/31 06:02:43;;;;;;;34.90;7.50;;;12.40;1.00;;;;;;4985760;28;20428;-66
2022/10/31 06:05:09;;;;;;;12.53;6.57;;;12.30;99.90;;;;;;4981670;28;20440;-65
2022/10/31 06:07:35;;;;;;;9.03;5.77;;;11.90;1.00;;;;;;4996743;28;20181;-68
2022/10/31 06:10:04;;;;;;;20.43;6.67;;;11.80;99.90;;;;;;4993763;28;20723;-70
2022/10/31 06:12:29;;;;;;;21.20;6.63;;;11.70;1.00;;;;;;4992884;28;20460;-67
2022/10/31 06:14:55;;;;;;;10.13;4.80;;;11.70;1.00;;;;;;4983532;28;20845;-68
2022/10/31 06:17:21;;;;;;;38.73;9.77;;;11.50;1.00;;;;;;4985035;28;20311;-67
2022/10/31 06:19:47;;;;;;;7.50;6.57;;;11.40;1.00;;;;;;4988787;28;20666;-70
2022/10/31 06:22:12;;;;;;;9.83;6.47;;;11.60;1.00;;;;;;4990061;28;20208;-67
2022/10/31 06:24:38;;;;;;;11.47;5.90;;;11.70;99.90;;;;;;4993727;28;20188;-68
2022/10/31 06:27:05;;;;;;;9.43;6.70;;;12.00;99.90;;;;;;4993526;28;20180;-68
2022/10/31 06:29:31;;;;;;;13.90;6.07;;;12.20;1.00;;;;;;4983951;28;20220;-69
2022/10/31 06:31:56;;;;;;;11.17;6.33;;;12.50;99.90;;;;;;4979636;28;20436;-69
2022/10/31 06:34:22;;;;;;;10.40;6.10;;;13.20;1.00;;;;;;4993308;28;20260;-70
2022/10/31 06:36:48;;;;;;;18.63;6.40;;;13.80;99.90;;;;;;4993397;28;20642;-68
2022/10/31 06:39:14;;;;;;;29.73;8.00;;;14.20;1.00;;;;;;4989567;28;20204;-68
2022/10/31 06:41:41;;;;;;;11.70;5.93;;;14.40;1.00;;;;;;4983222;28;20249;-69
2022/10/31 06:44:07;;;;;;;10.17;6.93;;;15.00;1.00;;;;;;4982331;28;20912;-68
2022/10/31 06:46:33;;;;;;;21.47;6.97;;;15.60;1.00;;;;;;4993201;28;20799;-68
2022/10/31 06:48:59;;;;;;;18.50;6.40;;;16.20;1.00;;;;;;4989463;28;20641;-67
2022/10/31 06:51:25;;;;;;;17.50;7.63;;;16.70;1.00;;;;;;4995796;28;20528;-65
2022/10/31 06:53:51;;;;;;;43.37;9.50;;;17.10;99.90;;;;;;4989673;28;20169;-67
2022/10/31 06:56:16;;;;;;;13.33;5.83;;;16.80;99.90;;;;;;4990919;28;20281;-69
2022/10/31 06:58:42;;;;;;;473.50;47.47;;;17.50;99.90;;;;;;4990934;28;20173;-69
2022/10/31 07:01:08;;;;;;;65.57;12.30;;;18.70;99.90;;;;;;4994572;28;20185;-68
2022/10/31 07:03:33;;;;;;;124.27;17.63;;;19.00;99.90;;;;;;4993190;28;20763;-67
2022/10/31 07:05:59;;;;;;;103.20;14.33;;;19.40;99.90;;;;;;4986723;28;20248;-67
2022/10/31 07:08:25;;;;;;;37.40;9.50;;;20.10;99.90;;;;;;4982268;28;20639;-65
2022/10/31 07:10:54;;;;;;;18.80;6.80;;;20.40;99.90;;;;;;4992397;28;20209;-68
2022/10/31 07:13:25;;;;;;;68.80;12.20;;;19.90;99.90;;;;;;4982597;28;20962;-67
2022/10/31 07:15:52;;;;;;;38.70;10.00;;;19.60;99.90;;;;;;4989652;28;20551;-68
2022/10/31 07:18:18;;;;;;;94.90;13.00;;;19.90;99.90;;;;;;4988948;28;20886;-69
2022/10/31 07:20:44;;;;;;;31.00;7.53;;;20.60;99.90;;;;;;4991601;28;20494;-68
2022/10/31 07:23:10;;;;;;;15.20;7.40;;;21.50;99.90;;;;;;4991701;28;20630;-68
2022/10/31 07:25:37;;;;;;;24.53;6.33;;;22.30;99.90;;;;;;4991774;28;21018;-68
2022/10/31 07:28:03;;;;;;;17.27;5.40;;;23.20;99.90;;;;;;4986130;28;20464;-68
2022/10/31 07:30:29;;;;;;;15.00;5.73;;;23.40;99.90;;;;;;4991401;28;20472;-69
2022/10/31 07:32:55;;;;;;;31.23;6.63;;;22.90;99.90;;;;;;4989140;28;20196;-70
2022/10/31 07:35:26;;;;;;;33.37;7.87;;;23.00;99.90;;;;;;4992352;28;20268;-69
2022/10/31 07:37:52;;;;;;;44.77;7.70;;;23.00;99.90;;;;;;4984370;28;20509;-69
2022/10/31 07:40:19;;;;;;;36.67;8.50;;;22.20;99.90;;;;;;4990225;28;20459;-67
2022/10/31 07:42:46;;;;;;;54.17;10.67;;;21.80;99.90;;;;;;4986657;28;20178;-69
2022/10/31 07:45:16;;;;;;;13.40;6.60;;;21.80;99.90;;;;;;4989193;28;20432;-67
2022/10/31 07:47:52;;;;;;;41.73;9.13;;;21.60;99.90;;;;;;4990768;28;20539;-69
2022/10/31 07:50:23;;;;;;;12.47;5.87;;;21.10;99.90;;;;;;4989601;28;20458;-71
2022/10/31 07:52:58;;;;;;;10.07;5.70;;;20.40;99.90;;;;;;4991514;28;20424;-70
2022/10/31 07:55:24;;;;;;;12.27;6.07;;;19.60;99.90;;;;;;4972793;28;20454;-70
2022/10/31 07:58:04;;;;;;;91.00;12.90;;;19.60;99.90;;;;;;4972530;28;20484;-71
2022/10/31 08:00:31;;;;;;;49.40;10.30;;;19.30;99.90;;;;;;4972045;28;20201;-71
2022/10/31 08:03:01;;;;;;;15.40;7.17;;;19.00;99.90;;;;;;4985301;28;20431;-70
2022/10/31 08:05:27;;;;;;;6.80;5.87;;;18.60;99.90;;;;;;4989232;28;20519;-70
2022/10/31 08:07:53;;;;;;;18.00;8.10;;;17.70;99.90;;;;;;4985257;28;20432;-68
2022/10/31 08:10:19;;;;;;;33.17;11.20;;;17.70;99.90;;;;;;4988775;28;20499;-69
2022/10/31 08:12:45;;;;;;;116.47;16.47;;;17.80;99.90;;;;;;4988633;28;20300;-68
2022/10/31 08:15:10;;;;;;;28.83;8.33;;;18.00;99.90;;;;;;4989201;28;20511;-70
2022/10/31 08:17:37;;;;;;;20.67;7.90;;;17.60;99.90;;;;;;4990560;28;20183;-71
2022/10/31 08:20:03;;;;;;;11.43;6.80;;;18.10;99.90;;;;;;4991055;28;20204;-69
2022/10/31 08:22:29;;;;;;;13.30;6.07;;;18.50;99.90;;;;;;4987855;28;20444;-69
2022/10/31 08:24:55;;;;;;;14.60;6.87;;;19.10;99.90;;;;;;4983134;28;20409;-70
2022/10/31 08:27:20;;;;;;;8.20;6.53;;;18.50;99.90;;;;;;4988655;28;20683;-70
2022/10/31 08:29:46;;;;;;;10.07;7.07;;;18.70;99.90;;;;;;4989067;28;20268;-67
2022/10/31 08:32:12;;;;;;;11.50;6.43;;;18.80;99.90;;;;;;4983201;28;20181;-69
2022/10/31 08:34:37;;;;;;;54.87;8.83;;;18.20;99.90;;;;;;4985168;28;20260;-67
2022/10/31 08:37:03;;;;;;;15.80;7.13;;;18.30;99.90;;;;;;4985614;28;20264;-66
2022/10/31 08:39:29;;;;;;;36.17;10.93;;;17.70;99.90;;;;;;4982948;28;20512;-67
2022/10/31 08:41:54;;;;;;;77.07;14.07;;;17.30;99.90;;;;;;4977937;28;20172;-68
2022/10/31 08:44:20;;;;;;;18.57;7.90;;;17.60;99.90;;;;;;4981323;28;20188;-68
2022/10/31 08:46:46;;;;;;;17.27;6.20;;;17.70;99.90;;;;;;4983353;28;20177;-68
2022/10/31 08:49:11;;;;;;;16.10;8.23;;;17.60;99.90;;;;;;4981021;28;20264;-67
2022/10/31 08:51:37;;;;;;;34.20;9.07;;;17.50;99.90;;;;;;4984661;28;20177;-67
2022/10/31 08:54:03;;;;;;;95.33;16.53;;;17.70;99.90;;;;;;4981043;28;20177;-68
2022/10/31 08:56:29;;;;;;;68.10;10.37;;;18.10;99.90;;;;;;4984142;28;20180;-67
2022/10/31 08:58:54;;;;;;;23.03;8.87;;;18.10;99.90;;;;;;4989113;28;20183;-68
2022/10/31 09:01:20;;;;;;;10.60;7.53;;;18.00;99.90;;;;;;4980745;28;20170;-69
2022/10/31 09:03:46;;;;;;;10.90;7.63;;;18.00;99.90;;;;;;4979202;28;20165;-67
2022/10/31 09:06:11;;;;;;;15.87;8.30;;;18.00;99.90;;;;;;4981197;28;20357;-68
2022/10/31 09:08:37;;;;;;;14.67;6.80;;;17.90;99.90;;;;;;4980271;28;20692;-68
2022/10/31 09:11:04;;;;;;;13.17;7.10;;;18.10;99.90;;;;;;4979437;28;20283;-68
2022/10/31 09:13:29;;;;;;;48.20;9.63;;;18.20;99.90;;;;;;4980714;28;20165;-68
2022/10/31 09:15:58;;;;;;;12.90;8.23;;;18.30;99.90;;;;;;4980804;28;20414;-67
2022/10/31 09:18:24;;;;;;;8.70;6.87;;;18.20;99.90;;;;;;4980041;28;20529;-69
2022/10/31 09:20:50;;;;;;;14.50;7.97;;;18.10;99.90;;;;;;4975257;28;20433;-70
2022/10/31 09:23:19;;;;;;;18.63;7.97;;;18.00;99.90;;;;;;4989972;28;20420;-67
2022/10/31 09:25:45;;;;;;;61.47;12.40;;;17.70;99.90;;;;;;4990878;28;20736;-68
2022/10/31 09:28:13;;;;;;;16.80;13.30;;;18.10;99.90;;;;;;4990384;28;20447;-68
2022/10/31 09:30:39;;;;;;;14.37;12.90;;;17.90;99.90;;;;;;4989887;28;20445;-68
2022/10/31 09:33:12;;;;;;;27.43;23.47;;;17.70;99.90;;;;;;4991125;28;20498;-68
2022/10/31 09:35:39;;;;;;;48.90;34.00;;;17.50;99.90;;;;;;4992245;28;20778;-69
2022/10/31 09:38:09;;;;;;;56.23;48.73;;;17.70;99.90;;;;;;4991239;28;20412;-68
2022/10/31 09:40:44;;;;;;;54.40;44.97;;;17.60;99.90;;;;;;4987107;28;20436;-68
2022/10/31 09:43:33;;;;;;;65.60;46.23;;;17.90;99.90;;;;;;4971625;28;20400;-69
2022/10/31 09:46:17;;;;;;;82.40;49.60;;;18.30;99.90;;;;;;4971736;28;20407;-69
2022/10/31 09:49:00;;;;;;;52.70;46.97;;;18.30;99.90;;;;;;4970875;28;20453;-67
2022/10/31 09:51:30;;;;;;;69.53;55.53;;;17.90;99.90;;;;;;4988596;28;20431;-69
2022/10/31 09:54:02;;;;;;;57.50;51.10;;;17.90;99.90;;;;;;4990706;28;20440;-67
2022/10/31 09:56:31;;;;;;;467.43;86.57;;;17.80;99.90;;;;;;4990296;28;20408;-69
2022/10/31 09:59:02;;;;;;;56.40;44.03;;;17.60;99.90;;;;;;4990141;28;20462;-70
2022/10/31 10:01:50;;;;;;;50.93;37.60;;;17.60;99.90;;;;;;4989639;28;20420;-68
2022/10/31 10:04:54;;;;;;;49.90;33.37;;;17.50;99.90;;;;;;4990449;28;20423;-68
2022/10/31 10:07:34;;;;;;;28.30;24.23;;;17.20;99.90;;;;;;4984022;28;21013;-67
2022/10/31 10:10:02;;;;;;;34.33;24.87;;;17.10;99.90;;;;;;4985652;28;20467;-67
2022/10/31 10:12:37;;;;;;;29.47;20.67;;;17.30;99.90;;;;;;4989733;28;20409;-68
2022/10/31 10:15:05;;;;;;;27.23;19.53;;;17.20;99.90;;;;;;4980239;28;20427;-69
2022/10/31 10:17:42;;;;;;;51.20;24.70;;;17.30;99.90;;;;;;4978160;28;20423;-70
2022/10/31 10:20:37;;;;;;;27.83;22.50;;;17.20;99.90;;;;;;4970784;28;20439;-70
2022/10/31 10:23:42;;;;;;;19.73;13.27;;;17.40;99.90;;;;;;4970800;28;20773;-68
2022/10/31 10:26:21;;;;;;;22.67;11.57;;;17.40;99.90;;;;;;4972022;28;20420;-70
2022/10/31 10:29:17;;;;;;;14.77;11.17;;;17.40;99.90;;;;;;4989620;28;20553;-70
2022/10/31 10:31:45;;;;;;;15.90;9.77;;;17.60;99.90;;;;;;4988196;28;20427;-69
2022/10/31 10:34:31;;;;;;;19.50;15.07;;;17.80;99.90;;;;;;4988940;28;20404;-68
2022/10/31 10:37:28;;;;;;;13.00;10.73;;;17.60;99.90;;;;;;4990385;28;20872;-71
2022/10/31 10:39:59;;;;;;;18.60;10.43;;;17.60;99.90;;;;;;4990184;28;20486;-72
2022/10/31 10:48:16;;;;;;;14.37;12.80;;;17.80;99.90;;;;;;4990369;28;20951;-69
2022/10/31 10:50:50;;;;;;;21.93;13.53;;;17.50;99.90;;;;;;4993032;28;20428;-70
2022/10/31 10:53:36;;;;;;;20.00;15.00;;;17.20;99.90;;;;;;4994179;28;20411;-69
2022/10/31 10:56:16;;;;;;;24.20;17.17;;;17.20;1.00;;;;;;4993958;28;20486;-71
2022/10/31 10:58:42;;;;;;;16.40;13.07;;;17.30;1.00;;;;;;4991780;28;20431;-69
2022/10/31 11:01:13;;;;;;;19.47;14.47;;;17.60;1.00;;;;;;4986308;28;20928;-69
2022/10/31 11:03:40;;;;;;;19.23;15.80;;;17.50;1.00;;;;;;4986922;28;20420;-69
2022/10/31 11:06:20;;;;;;;18.00;15.47;;;17.70;1.00;;;;;;4984883;28;20910;-69
2022/10/31 11:08:46;;;;;;;21.30;14.30;;;17.90;1.00;;;;;;4974085;28;20479;-68
2022/10/31 11:11:25;;;;;;;27.43;14.37;;;18.10;1.00;;;;;;4973357;28;20935;-68
2022/10/31 11:13:56;;;;;;;32.23;14.97;;;18.10;99.90;;;;;;4973856;28;20484;-69
2022/10/31 11:16:31;;;;;;;52.53;18.50;;;18.10;99.90;;;;;;4988675;28;20459;-68
2022/10/31 11:19:12;;;;;;;25.63;16.20;;;18.20;99.90;;;;;;4992183;28;20502;-69
2022/10/31 11:21:38;;;;;;;23.27;15.20;;;18.20;99.90;;;;;;4992522;28;20420;-69
2022/10/31 11:24:04;;;;;;;20.53;15.50;;;18.10;1.00;;;;;;4993023;28;20775;-68
2022/10/31 11:26:30;;;;;;;38.10;17.13;;;18.30;1.00;;;;;;4993361;28;20267;-69
2022/10/31 11:28:57;;;;;;;18.47;15.20;;;18.20;99.90;;;;;;4992678;28;20197;-69
2022/10/31 11:31:24;;;;;;;22.53;18.50;;;18.00;1.00;;;;;;4992568;28;20451;-69
2022/10/31 11:34:01;;;;;;;32.93;19.43;;;18.00;1.00;;;;;;4992540;28;20404;-68
2022/10/31 11:36:30;;;;;;;33.83;19.50;;;18.40;1.00;;;;;;4992445;28;20416;-66
2022/10/31 11:38:55;;;;;;;30.63;19.20;;;18.40;1.00;;;;;;4992664;28;20413;-66
2022/10/31 11:41:32;;;;;;;30.43;22.93;;;18.60;1.00;;;;;;4990229;28;20420;-69
2022/10/31 11:44:10;;;;;;;30.87;27.50;;;18.60;1.00;;;;;;4992671;28;20160;-67
2022/10/31 11:46:40;;;;;;;34.30;25.87;;;18.60;1.00;;;;;;4992900;28;20450;-68
2022/10/31 11:49:18;;;;;;;23.77;21.07;;;18.80;1.00;;;;;;4992079;28;20559;-68
2022/10/31 11:51:49;;;;;;;35.53;23.17;;;18.90;99.90;;;;;;4990240;28;20498;-69
2022/10/31 11:54:29;;;;;;;32.43;20.43;;;19.00;99.90;;;;;;4991269;28;20511;-67
2022/10/31 11:56:55;;;;;;;28.73;25.73;;;19.30;99.90;;;;;;4992932;28;20487;-66
2022/10/31 11:59:31;;;;;;;26.67;22.50;;;19.20;99.90;;;;;;4992747;28;20512;-66
2022/10/31 12:01:59;;;;;;;31.00;22.70;;;18.90;99.90;;;;;;4991028;28;21050;-69
2022/10/31 12:04:29;;;;;;;38.07;30.90;;;19.00;1.00;;;;;;4984560;28;20567;-69
2022/10/31 12:06:55;;;;;;;40.77;36.30;;;18.90;1.00;;;;;;4987522;28;20418;-67
2022/10/31 12:09:23;;;;;;;42.10;38.07;;;18.80;1.00;;;;;;4972726;28;20563;-67
2022/10/31 12:12:00;;;;;;;36.20;31.77;;;19.00;1.00;;;;;;4971891;28;20176;-66
2022/10/31 12:14:35;;;;;;;39.77;31.20;;;19.00;1.00;;;;;;4973031;28;20910;-68
2022/10/31 12:17:12;;;;;;;24.20;21.70;;;18.80;1.00;;;;;;4972259;28;20409;-68
2022/10/31 12:20:15;;;;;;;29.40;21.70;;;18.80;1.00;;;;;;4981173;28;20958;-68
2022/10/31 12:23:12;;;;;;;62.73;27.30;;;18.70;1.00;;;;;;4991292;28;21162;-68
2022/10/31 12:25:44;;;;;;;34.33;29.93;;;18.50;1.00;;;;;;4972431;28;21059;-69
2022/10/31 12:28:28;;;;;;;37.60;25.07;;;18.50;1.00;;;;;;4972333;28;20413;-69
2022/10/31 12:31:22;;;;;;;42.20;37.20;;;18.60;1.00;;;;;;4971562;28;20449;-66
2022/10/31 12:34:00;;;;;;;59.60;46.00;;;18.40;1.00;;;;;;4973360;28;20416;-69
2022/10/31 12:36:53;;;;;;;31.13;26.20;;;18.10;1.00;;;;;;4973063;28;20973;-67
2022/10/31 12:39:21;;;;;;;34.57;29.80;;;18.00;99.90;;;;;;4971986;28;20794;-70
2022/10/31 12:42:02;;;;;;;30.40;25.33;;;18.00;99.90;;;;;;4973570;28;20416;-71
2022/10/31 12:44:32;;;;;;;30.03;26.37;;;17.90;99.90;;;;;;4989069;28;20611;-69
2022/10/31 12:47:25;;;;;;;34.73;21.93;;;17.70;1.00;;;;;;4991129;28;20405;-67
2022/10/31 12:50:17;;;;;;;46.20;23.20;;;17.80;99.90;;;;;;4979250;28;20466;-70
2022/10/31 12:53:13;;;;;;;36.50;23.00;;;17.90;99.90;;;;;;4971119;28;20409;-68
2022/10/31 12:56:03;;;;;;;27.97;19.00;;;17.90;99.90;;;;;;4972287;28;20472;-69
2022/10/31 12:58:34;;;;;;;24.53;19.00;;;17.90;1.00;;;;;;4971736;28;20441;-69
2022/10/31 13:01:32;;;;;;;26.43;20.97;;;17.80;1.00;;;;;;4975280;28;20831;-67